createdAt,value
2024-03-09T00:04:38.774Z,0.40
2024-03-09T00:09:40.861Z,0.30
2024-03-09T00:14:42.813Z,0.30
2024-03-09T00:19:46.182Z,0.30
2024-03-09T00:24:48.554Z,0.50
2024-03-09T00:29:50.349Z,0.60
2024-03-09T00:34:55.259Z,0.55
2024-03-09T00:39:57.611Z,0.35
2024-03-09T00:45:02.402Z,0.50
2024-03-09T00:50:09.262Z,0.40
2024-03-09T00:55:17.166Z,0.50
2024-03-09T01:00:20.142Z,0.50
2024-03-09T01:05:24.652Z,0.70
2024-03-09T01:10:27.122Z,0.68
2024-03-09T01:15:28.963Z,0.52
2024-03-09T01:20:30.675Z,0.52
2024-03-09T01:25:32.366Z,0.50
2024-03-09T01:30:35.737Z,0.63
2024-03-09T01:35:37.482Z,0.65
2024-03-09T01:40:39.381Z,0.75
2024-03-09T01:45:41.158Z,0.70
2024-03-09T01:50:43.043Z,0.57
2024-03-09T01:55:49.637Z,0.57
2024-03-09T02:00:57.817Z,0.73
2024-03-09T02:05:59.680Z,0.65
2024-03-09T02:11:01.981Z,0.55
2024-03-09T02:16:03.968Z,0.70
2024-03-09T02:21:09.248Z,0.40
2024-03-09T02:26:11.168Z,0.52
2024-03-09T02:31:15.135Z,0.60
2024-03-09T02:36:16.843Z,0.43
2024-03-09T02:41:19.361Z,0.40
2024-03-09T02:46:27.610Z,0.63
2024-03-09T02:51:29.361Z,0.60
2024-03-09T02:56:31.588Z,0.50
2024-03-09T03:01:33.470Z,0.40
2024-03-09T03:06:35.262Z,0.60
2024-03-09T03:11:37.322Z,0.50
2024-03-09T03:16:39.350Z,0.85
2024-03-09T03:21:41.711Z,0.60
2024-03-09T03:26:47.785Z,0.57
2024-03-09T03:31:49.723Z,0.45
2024-03-09T03:36:51.442Z,0.57
2024-03-09T03:41:53.812Z,0.43
2024-03-09T03:46:55.598Z,0.35
2024-03-09T03:51:57.341Z,0.80
2024-03-09T03:57:00.112Z,0.50
2024-03-09T04:02:02.248Z,0.65
2024-03-09T04:07:06.012Z,0.57
2024-03-09T04:12:08.323Z,0.57
2024-03-09T04:17:13.130Z,0.50
2024-03-09T04:22:15.545Z,0.40
2024-03-09T04:27:17.844Z,0.63
2024-03-09T04:32:19.533Z,0.55
2024-03-09T04:37:27.237Z,0.65
2024-03-09T04:42:29.907Z,0.60
2024-03-09T04:47:34.312Z,0.57
2024-03-09T04:52:36.735Z,0.45
2024-03-09T04:57:40.120Z,0.45
2024-03-09T05:02:49.131Z,0.50
2024-03-09T05:07:52.232Z,0.80
2024-03-09T05:12:55.537Z,0.55
2024-03-09T05:18:01.656Z,0.40
2024-03-09T05:23:13.335Z,0.57
2024-03-09T05:28:21.359Z,0.50
2024-03-09T05:33:23.156Z,0.60
2024-03-09T05:38:24.849Z,0.70
2024-03-09T05:43:26.563Z,0.80
2024-03-09T05:48:28.815Z,0.50
2024-03-09T05:53:35.977Z,0.57
2024-03-09T05:58:38.486Z,0.75
2024-03-09T06:03:43.198Z,0.73
2024-03-09T06:08:45.053Z,0.80
2024-03-09T06:13:49.784Z,0.50
2024-03-09T06:18:51.863Z,0.70
2024-03-09T06:23:54.914Z,0.70
2024-03-09T06:28:56.868Z,0.75
2024-03-09T06:33:58.732Z,0.47
2024-03-09T06:39:02.397Z,0.75
2024-03-09T06:44:06.139Z,0.60
2024-03-09T06:49:09.755Z,0.57
2024-03-09T06:54:14.493Z,0.70
2024-03-09T06:59:16.263Z,0.50
2024-03-09T07:04:20.048Z,0.32
2024-03-09T07:09:22.133Z,0.60
2024-03-09T07:14:24.016Z,0.43
2024-03-09T07:19:26.230Z,0.52
2024-03-09T07:24:28.983Z,0.40
2024-03-09T07:29:31.684Z,0.50
2024-03-09T07:34:34.946Z,0.80
2024-03-09T07:39:39.244Z,0.43
2024-03-09T07:44:41.021Z,1.15
2024-03-09T07:49:42.742Z,0.55
2024-03-09T07:54:44.945Z,0.75
2024-03-09T07:59:47.031Z,0.77
2024-03-09T08:04:49.081Z,0.52
2024-03-09T08:09:51.988Z,0.73
2024-03-09T08:14:53.814Z,0.60
2024-03-09T08:20:00.758Z,0.73
2024-03-09T08:25:10.275Z,0.95
2024-03-09T08:30:17.143Z,0.73
2024-03-09T08:35:20.562Z,1.25
2024-03-09T08:40:32.065Z,1.00
2024-03-09T08:45:36.007Z,0.77
2024-03-09T08:50:37.949Z,0.98
2024-03-09T08:55:40.984Z,1.17
2024-03-09T09:00:45.178Z,0.60
2024-03-09T09:05:47.282Z,0.90
2024-03-09T09:10:49.785Z,1.08
2024-03-09T09:15:53.341Z,0.90
2024-03-09T09:20:55.213Z,0.68
2024-03-09T09:25:59.078Z,0.73
2024-03-09T09:31:00.838Z,0.90
2024-03-09T09:36:02.639Z,0.65
2024-03-09T09:41:05.543Z,0.55
2024-03-09T09:46:07.388Z,0.80
2024-03-09T09:51:12.611Z,0.90
2024-03-09T09:56:15.548Z,0.70
2024-03-09T10:01:24.903Z,0.98
2024-03-09T10:06:26.872Z,0.90
2024-03-09T10:11:32.713Z,1.00
2024-03-09T10:16:41.110Z,1.02
2024-03-09T10:21:43.011Z,0.90
2024-03-09T10:26:50.938Z,0.98
2024-03-09T10:31:52.949Z,1.05
2024-03-09T10:36:56.393Z,0.88
2024-03-09T10:41:59.558Z,1.02
2024-03-09T10:47:10.297Z,1.15
2024-03-09T10:52:15.326Z,0.98
2024-03-09T10:57:22.985Z,0.95
2024-03-09T11:02:25.321Z,0.85
2024-03-09T11:07:27.398Z,1.05
2024-03-09T11:12:30.039Z,0.90
2024-03-09T11:17:36.593Z,0.98
2024-03-09T11:22:46.601Z,0.88
2024-03-09T11:27:50.369Z,0.77
2024-03-09T11:32:55.368Z,0.90
2024-03-09T11:37:57.731Z,1.73
2024-03-09T11:43:10.936Z,1.27
2024-03-09T11:48:13.055Z,1.27
2024-03-09T11:53:14.953Z,1.50
2024-03-09T11:58:18.879Z,1.13
2024-03-09T12:03:20.626Z,2.00
2024-03-09T12:08:23.476Z,1.15
2024-03-09T12:13:28.268Z,1.30
2024-03-09T12:18:36.312Z,1.25
2024-03-09T12:23:38.036Z,1.05
2024-03-09T12:28:43.433Z,1.02
2024-03-09T12:33:46.044Z,1.23
2024-03-09T12:38:48.589Z,1.95
2024-03-09T12:43:50.508Z,1.60
2024-03-09T12:48:52.311Z,1.45
2024-03-09T12:53:59.442Z,1.40
2024-03-09T12:59:02.352Z,1.38
2024-03-09T13:04:09.666Z,2.22
2024-03-09T13:09:16.480Z,2.10
2024-03-09T13:14:22.390Z,3.15
2024-03-09T13:19:25.598Z,1.80
2024-03-09T13:24:28.403Z,1.70
2024-03-09T13:29:31.747Z,1.65
2024-03-09T13:34:34.842Z,1.55
2024-03-09T13:39:38.084Z,1.50
2024-03-09T13:44:40.989Z,1.60
2024-03-09T13:49:47.122Z,1.42
2024-03-09T13:54:48.879Z,1.50
2024-03-09T13:59:50.824Z,1.73
2024-03-09T14:04:53.169Z,1.48
2024-03-09T14:09:55.930Z,1.33
2024-03-09T14:14:57.962Z,1.10
2024-03-09T14:20:05.038Z,1.60
2024-03-09T14:25:12.003Z,1.05
2024-03-09T14:30:14.260Z,1.23
2024-03-09T14:35:20.583Z,1.23
2024-03-09T14:40:25.874Z,1.23
2024-03-09T14:45:28.049Z,1.08
2024-03-09T14:50:31.198Z,1.70
2024-03-09T14:55:33.379Z,1.65
2024-03-09T15:00:44.578Z,1.48
2024-03-09T15:05:52.097Z,1.10
2024-03-09T15:10:59.697Z,1.40
2024-03-09T15:16:02.209Z,1.60
2024-03-09T15:21:04.746Z,1.27
2024-03-09T15:26:09.653Z,1.08
2024-03-09T15:31:13.553Z,0.75
2024-03-09T15:36:15.372Z,1.05
2024-03-09T15:41:17.714Z,1.30
2024-03-09T15:46:20.725Z,1.30
2024-03-09T15:51:24.748Z,1.33
2024-03-09T15:56:26.676Z,1.05
2024-03-09T16:01:28.425Z,1.20
2024-03-09T16:06:30.967Z,0.80
2024-03-09T16:11:33.635Z,1.15
2024-03-09T16:16:36.319Z,1.05
2024-03-09T16:21:42.392Z,1.10
2024-03-09T16:26:44.105Z,0.90
2024-03-09T16:31:45.920Z,1.10
2024-03-09T16:36:47.814Z,1.17
2024-03-09T16:41:49.556Z,0.95
2024-03-09T16:46:51.369Z,1.17
2024-03-09T16:51:53.224Z,0.93
2024-03-09T16:56:56.777Z,1.00
2024-03-09T17:01:58.569Z,1.10
2024-03-09T17:07:00.372Z,1.38
2024-03-09T17:12:02.760Z,1.30
2024-03-09T17:17:07.222Z,0.93
2024-03-09T17:22:17.617Z,1.27
2024-03-09T17:27:19.370Z,1.20
2024-03-09T17:32:24.625Z,0.95
2024-03-09T17:37:28.050Z,1.13
2024-03-09T17:42:29.819Z,1.13
2024-03-09T17:47:31.680Z,1.05
2024-03-09T17:52:33.408Z,1.60
2024-03-09T17:57:35.127Z,1.10
2024-03-09T18:02:38.184Z,0.88
2024-03-09T18:07:40.238Z,1.38
2024-03-09T18:12:42.186Z,0.88
2024-03-09T18:17:47.260Z,1.00
2024-03-09T18:22:49.800Z,1.05
2024-03-09T18:27:52.906Z,1.20
2024-03-09T18:32:55.609Z,1.17
2024-03-09T18:38:04.130Z,1.25
2024-03-09T18:43:09.750Z,1.15
2024-03-09T18:48:11.511Z,1.25
2024-03-09T18:53:13.346Z,1.63
2024-03-09T18:58:15.181Z,1.55
2024-03-09T19:03:18.897Z,1.30
2024-03-09T19:08:22.847Z,0.90
2024-03-09T19:13:25.048Z,1.48
2024-03-09T19:18:28.665Z,1.27
2024-03-09T19:23:30.579Z,1.30
2024-03-09T19:28:32.288Z,0.75
2024-03-09T19:33:33.973Z,1.50
2024-03-09T19:38:52.018Z,1.05
2024-03-09T19:43:56.607Z,1.17
2024-03-09T19:48:58.777Z,1.63
2024-03-09T19:54:01.508Z,1.17
2024-03-09T19:59:34.061Z,1.17
2024-03-09T20:04:26.223Z,1.55
2024-03-09T20:09:28.342Z,1.05
2024-03-09T20:14:31.899Z,1.05
2024-03-09T20:19:33.669Z,1.30
2024-03-09T20:24:35.824Z,1.45
2024-03-09T20:29:37.698Z,1.33
2024-03-09T20:34:41.223Z,1.70
2024-03-09T20:39:42.969Z,1.20
2024-03-09T20:44:44.834Z,1.23
2024-03-09T20:49:46.611Z,1.30
2024-03-09T20:54:48.382Z,1.80
2024-03-09T20:59:52.101Z,1.98
2024-03-09T21:04:53.812Z,2.78
2024-03-09T21:09:55.660Z,1.83
2024-03-09T21:14:59.479Z,1.70
2024-03-09T21:20:13.163Z,1.75
2024-03-09T21:25:15.593Z,1.50
2024-03-09T21:30:20.490Z,1.42
2024-03-09T21:35:22.689Z,1.40
2024-03-09T21:40:26.159Z,1.40
2024-03-09T21:45:28.361Z,1.48
2024-03-09T21:51:08.683Z,1.23
2024-03-09T21:55:55.976Z,1.40
2024-03-09T22:00:59.384Z,1.50
2024-03-09T22:06:01.510Z,1.30
2024-03-09T22:11:05.984Z,1.30
2024-03-09T22:16:09.235Z,1.15
2024-03-09T22:21:13.074Z,1.15
2024-03-09T22:26:15.043Z,1.50
2024-03-09T22:31:16.817Z,0.38
2024-03-09T22:36:18.757Z,1.13
2024-03-09T22:41:21.041Z,0.70
2024-03-09T22:46:22.861Z,0.80
2024-03-09T22:51:24.618Z,0.40
2024-03-09T22:56:26.546Z,0.60
2024-03-09T23:01:44.922Z,0.60
2024-03-09T23:06:50.937Z,0.82
2024-03-09T23:11:53.559Z,0.80
2024-03-09T23:16:56.399Z,0.70
2024-03-09T23:22:01.913Z,0.60
2024-03-09T23:27:06.626Z,0.80
2024-03-09T23:32:08.487Z,0.65
2024-03-09T23:37:10.920Z,0.60
2024-03-09T23:42:12.874Z,0.70
2024-03-09T23:47:15.477Z,0.88
2024-03-09T23:52:18.758Z,0.82
2024-03-09T23:57:20.442Z,0.70
